createdAt,value
2023-02-22T00:00:46.520Z,3.60
2023-02-22T00:03:55.681Z,3.55
2023-02-22T00:06:28.359Z,3.53
2023-02-22T00:08:58.185Z,3.51
2023-02-22T00:11:27.835Z,3.45
2023-02-22T00:13:59.780Z,3.39
2023-02-22T00:16:32.859Z,3.39
2023-02-22T00:19:02.737Z,3.44
2023-02-22T00:21:30.885Z,3.46
2023-02-22T00:24:24.388Z,3.48
2023-02-22T00:26:57.944Z,3.46
2023-02-22T00:29:56.581Z,3.45
2023-02-22T00:33:05.966Z,3.47
2023-02-22T00:35:35.125Z,3.48
2023-02-22T00:38:03.906Z,3.45
2023-02-22T00:40:35.209Z,3.43
2023-02-22T00:43:11.509Z,3.39
2023-02-22T00:46:23.221Z,3.37
2023-02-22T00:52:25.228Z,3.33
2023-02-22T00:54:58.003Z,3.31
2023-02-22T00:57:34.901Z,3.32
2023-02-22T01:06:47.128Z,3.29
2023-02-22T01:16:14.148Z,3.14
2023-02-22T01:19:33.662Z,3.10
2023-02-22T01:22:01.890Z,3.03
2023-02-22T01:24:33.095Z,3.03
2023-02-22T01:27:06.800Z,3.02
2023-02-22T01:29:49.714Z,2.95
2023-02-22T01:32:23.117Z,2.92
2023-02-22T01:34:53.748Z,2.93
2023-02-22T01:37:21.133Z,2.92
2023-02-22T01:39:55.197Z,2.94
2023-02-22T01:42:26.096Z,3.00
2023-02-22T01:45:54.171Z,2.99
2023-02-22T01:48:27.836Z,3.00
2023-02-22T01:51:36.552Z,3.01
2023-02-22T01:54:40.364Z,3.00
2023-02-22T01:57:33.783Z,3.01
2023-02-22T02:00:12.347Z,3.04
2023-02-22T02:03:00.878Z,2.99
2023-02-22T02:05:32.050Z,2.93
2023-02-22T02:08:08.397Z,2.91
2023-02-22T02:10:35.951Z,2.87
2023-02-22T02:13:04.005Z,2.89
2023-02-22T02:15:37.247Z,2.90
2023-02-22T02:18:10.954Z,2.85
2023-02-22T02:21:06.766Z,2.77
2023-02-22T02:24:10.257Z,2.71
2023-02-22T02:27:10.476Z,2.70
2023-02-22T02:30:17.020Z,2.73
2023-02-22T02:33:12.157Z,2.71
2023-02-22T02:36:19.012Z,2.67
2023-02-22T02:39:23.860Z,2.59
2023-02-22T02:41:57.683Z,2.56
2023-02-22T02:54:43.394Z,2.90
2023-02-22T02:57:16.747Z,2.97
2023-02-22T02:59:48.196Z,3.01
2023-02-22T03:03:06.366Z,2.97
2023-02-22T03:06:45.067Z,3.02
2023-02-22T03:09:48.474Z,3.09
2023-02-22T03:12:47.929Z,3.10
2023-02-22T03:32:44.669Z,3.18
2023-02-22T03:41:10.696Z,3.05
2023-02-22T03:43:46.813Z,3.12
2023-02-22T03:46:22.220Z,3.18
2023-02-22T03:49:17.872Z,3.24
2023-02-22T03:51:46.092Z,3.22
2023-02-22T03:55:44.904Z,3.20
2023-02-22T03:58:16.129Z,3.20
2023-02-22T04:00:46.187Z,3.21
2023-02-22T04:04:26.846Z,3.27
2023-02-22T04:06:56.699Z,3.31
2023-02-22T04:09:24.286Z,3.37
2023-02-22T04:11:52.876Z,3.44
2023-02-22T04:14:23.716Z,3.51
2023-02-22T04:16:53.899Z,3.58
2023-02-22T04:19:21.741Z,3.63
2023-02-22T04:21:53.111Z,3.63
2023-02-22T04:24:26.403Z,3.67
2023-02-22T04:27:00.467Z,3.67
2023-02-22T04:29:38.615Z,3.64
2023-02-22T04:32:09.658Z,3.62
2023-02-22T04:34:46.036Z,3.58
2023-02-22T04:37:15.245Z,3.57
2023-02-22T04:39:42.770Z,3.53
2023-02-22T04:42:11.841Z,3.52
2023-02-22T04:44:41.031Z,3.47
2023-02-22T04:47:11.563Z,3.46
2023-02-22T04:49:41.116Z,3.44
2023-02-22T04:52:13.482Z,3.43
2023-02-22T04:54:40.731Z,3.45
2023-02-22T05:00:11.056Z,3.53
2023-02-22T05:02:40.507Z,3.49
2023-02-22T05:05:10.151Z,3.45
2023-02-22T05:07:49.533Z,3.42
2023-02-22T05:10:22.770Z,3.42
2023-02-22T05:12:53.263Z,3.37
2023-02-22T05:18:30.216Z,3.35
2023-02-22T05:20:58.743Z,3.36
2023-02-22T05:23:25.869Z,3.35
2023-02-22T05:25:53.709Z,3.28
2023-02-22T05:29:24.281Z,3.28
2023-02-22T05:35:12.768Z,3.32
2023-02-22T05:44:58.412Z,3.42
